createdAt,value
2019-05-16T00:00:45.363Z,3.40
2019-05-16T00:01:49.654Z,3.40
2019-05-16T00:02:53.912Z,3.40
2019-05-16T00:03:58.186Z,3.45
2019-05-16T00:05:02.442Z,3.40
2019-05-16T00:06:08.594Z,3.38
2019-05-16T00:07:10.980Z,3.38
2019-05-16T00:08:15.261Z,3.41
2019-05-16T00:09:19.416Z,3.40
2019-05-16T00:10:23.656Z,3.39
2019-05-16T00:11:28.205Z,3.39
2019-05-16T00:12:32.120Z,3.43
2019-05-16T00:13:38.275Z,3.40
2019-05-16T00:14:40.700Z,3.43
2019-05-16T00:15:44.853Z,3.42
2019-05-16T00:16:49.118Z,3.39
2019-05-16T00:17:53.401Z,3.35
2019-05-16T00:18:58.303Z,3.35
2019-05-16T00:20:02.040Z,3.36
2019-05-16T00:21:08.558Z,3.37
2019-05-16T00:22:10.561Z,3.38
2019-05-16T00:23:14.798Z,3.38
2019-05-16T00:24:19.078Z,3.33
2019-05-16T00:25:23.570Z,3.36
2019-05-16T00:26:28.162Z,3.39
2019-05-16T00:27:31.875Z,3.35
2019-05-16T00:28:38.041Z,3.37
2019-05-16T00:29:40.403Z,3.36
2019-05-16T00:30:44.598Z,3.37
2019-05-16T00:31:48.860Z,3.31
2019-05-16T00:32:53.080Z,3.34
2019-05-16T00:33:57.865Z,3.34
2019-05-16T00:35:01.558Z,3.36
2019-05-16T00:36:06.900Z,3.29
2019-05-16T00:37:10.089Z,3.29
2019-05-16T00:38:14.282Z,3.28
2019-05-16T00:39:18.882Z,3.28
2019-05-16T00:40:22.713Z,3.26
2019-05-16T00:41:28.315Z,3.22
2019-05-16T00:42:31.220Z,3.26
2019-05-16T00:43:37.763Z,3.22
2019-05-16T00:44:39.740Z,3.22
2019-05-16T00:45:43.872Z,3.22
2019-05-16T00:46:48.594Z,3.20
2019-05-16T00:47:52.381Z,3.22
2019-05-16T00:48:58.763Z,3.22
2019-05-16T00:50:00.942Z,3.23
2019-05-16T00:51:07.663Z,3.24
2019-05-16T00:52:09.459Z,3.25
2019-05-16T00:53:13.800Z,3.30
2019-05-16T00:54:18.580Z,3.28
2019-05-16T00:55:22.177Z,3.27
2019-05-16T00:56:28.765Z,3.30
2019-05-16T00:57:30.760Z,3.34
2019-05-16T00:58:34.922Z,3.32
2019-05-16T00:59:39.125Z,3.37
2019-05-16T01:00:43.354Z,3.43
2019-05-16T01:01:50.120Z,3.48
2019-05-16T01:02:51.890Z,3.49
2019-05-16T01:03:58.464Z,3.52
2019-05-16T01:05:00.479Z,3.56
2019-05-16T01:06:15.633Z,3.57
2019-05-16T01:07:08.977Z,3.59
2019-05-16T01:08:13.230Z,3.64
2019-05-16T01:09:18.816Z,3.69
2019-05-16T01:10:21.786Z,3.64
2019-05-16T01:11:27.777Z,3.71
2019-05-16T01:12:30.251Z,3.76
2019-05-16T01:13:34.600Z,3.71
2019-05-16T01:14:38.821Z,3.69
2019-05-16T01:15:43.098Z,3.73
2019-05-16T01:16:48.842Z,3.76
2019-05-16T01:17:51.606Z,3.74
2019-05-16T01:18:55.910Z,3.76
2019-05-16T01:20:00.100Z,3.79
2019-05-16T01:21:04.373Z,3.84
2019-05-16T01:22:08.696Z,3.84
2019-05-16T01:23:12.913Z,3.88
2019-05-16T01:24:18.826Z,3.91
2019-05-16T01:25:21.436Z,3.95
2019-05-16T01:26:25.672Z,3.95
2019-05-16T01:27:29.854Z,4.00
2019-05-16T01:28:34.124Z,4.01
2019-05-16T01:29:38.643Z,4.06
2019-05-16T01:30:42.692Z,4.07
2019-05-16T01:31:48.373Z,4.07
2019-05-16T01:32:51.273Z,3.99
2019-05-16T01:33:55.575Z,4.09
2019-05-16T01:34:59.820Z,4.11
2019-05-16T01:36:04.006Z,4.18
2019-05-16T01:37:08.422Z,4.17
2019-05-16T01:38:12.472Z,4.17
2019-05-16T01:39:18.255Z,4.22
2019-05-16T01:40:21.026Z,4.25
2019-05-16T01:41:25.340Z,4.31
2019-05-16T01:42:29.484Z,4.30
2019-05-16T01:43:33.713Z,4.37
2019-05-16T01:44:38.277Z,4.40
2019-05-16T01:45:42.254Z,4.42
2019-05-16T01:46:48.085Z,4.42
2019-05-16T01:47:50.652Z,4.46
2019-05-16T01:48:54.925Z,4.51
2019-05-16T01:49:59.230Z,4.57
2019-05-16T01:51:03.418Z,4.63
2019-05-16T01:52:08.525Z,4.66
2019-05-16T01:53:11.913Z,4.69
2019-05-16T01:54:18.015Z,4.69
2019-05-16T01:55:20.401Z,4.75
2019-05-16T01:56:24.673Z,4.84
2019-05-16T01:57:28.909Z,4.79
2019-05-16T01:58:33.177Z,4.90
2019-05-16T01:59:38.014Z,4.85
2019-05-16T02:00:52.635Z,4.86
2019-05-16T02:01:48.263Z,4.89
2019-05-16T02:02:50.234Z,4.77
2019-05-16T02:03:54.465Z,4.82
2019-05-16T02:04:59.144Z,4.88
2019-05-16T02:06:03.046Z,4.94
2019-05-16T02:07:08.630Z,4.93
2019-05-16T02:08:11.493Z,4.93
2019-05-16T02:09:15.753Z,4.89
2019-05-16T02:10:20.103Z,4.77
2019-05-16T02:11:24.362Z,4.69
2019-05-16T02:12:28.499Z,4.75
2019-05-16T02:13:32.825Z,4.65
2019-05-16T02:14:38.752Z,4.77
2019-05-16T02:15:41.292Z,4.64
2019-05-16T02:16:47.654Z,4.60
2019-05-16T02:17:49.810Z,4.53
2019-05-16T02:18:54.039Z,4.64
2019-05-16T02:19:58.272Z,4.63
2019-05-16T02:21:02.525Z,4.57
2019-05-16T02:22:08.757Z,4.59
2019-05-16T02:23:10.961Z,4.61
2019-05-16T02:24:15.300Z,4.62
2019-05-16T02:25:19.445Z,4.64
2019-05-16T02:26:23.680Z,4.67
2019-05-16T02:27:28.778Z,4.62
2019-05-16T02:28:39.734Z,4.67
2019-05-16T02:29:36.499Z,4.73
2019-05-16T02:30:42.156Z,4.74
2019-05-16T02:31:45.013Z,4.81
2019-05-16T02:32:52.237Z,4.74
2019-05-16T02:33:53.463Z,4.64
2019-05-16T02:35:00.905Z,4.64
2019-05-16T02:36:02.140Z,4.56
2019-05-16T02:37:22.603Z,4.58
2019-05-16T02:38:11.354Z,4.64
2019-05-16T02:39:14.673Z,4.58
2019-05-16T02:40:21.055Z,4.49
2019-05-16T02:41:23.203Z,4.57
2019-05-16T02:42:30.713Z,4.53
2019-05-16T02:43:31.754Z,4.52
2019-05-16T02:44:35.952Z,4.58
2019-05-16T02:45:41.484Z,4.58
2019-05-16T02:46:44.400Z,4.61
2019-05-16T02:47:51.309Z,4.61
2019-05-16T02:48:52.930Z,4.68
2019-05-16T02:49:57.213Z,4.69
2019-05-16T02:51:02.040Z,4.75
2019-05-16T02:52:05.727Z,4.75
2019-05-16T02:53:12.766Z,4.83
2019-05-16T02:54:14.177Z,4.90
2019-05-16T02:55:21.362Z,4.90
2019-05-16T02:56:22.649Z,4.93
2019-05-16T02:57:26.836Z,4.93
2019-05-16T02:58:31.160Z,5.11
2019-05-16T02:59:35.272Z,5.15
2019-05-16T03:00:42.524Z,5.18
2019-05-16T03:01:43.840Z,5.21
2019-05-16T03:02:50.477Z,5.31
2019-05-16T03:03:52.282Z,5.26
2019-05-16T03:04:56.599Z,5.36
2019-05-16T03:06:01.572Z,5.35
2019-05-16T03:07:05.156Z,5.35
2019-05-16T03:08:12.114Z,5.43
2019-05-16T03:09:13.706Z,5.42
2019-05-16T03:10:20.385Z,5.43
2019-05-16T03:11:22.121Z,5.43
2019-05-16T03:12:26.370Z,5.43
2019-05-16T03:13:31.195Z,5.42
2019-05-16T03:14:34.944Z,5.43
2019-05-16T03:15:40.708Z,5.45
2019-05-16T03:16:43.492Z,5.40
2019-05-16T03:17:50.629Z,5.46
2019-05-16T03:18:51.837Z,5.45
2019-05-16T03:19:56.093Z,5.47
2019-05-16T03:21:00.662Z,5.53
2019-05-16T03:22:04.555Z,5.49
2019-05-16T03:23:11.291Z,5.44
2019-05-16T03:24:13.045Z,5.47
2019-05-16T03:25:17.270Z,5.54
2019-05-16T03:26:21.638Z,5.54
2019-05-16T03:27:25.862Z,5.55
2019-05-16T03:28:30.799Z,5.56
2019-05-16T03:29:35.196Z,5.49
2019-05-16T03:30:44.801Z,5.44
2019-05-16T03:31:45.042Z,5.41
2019-05-16T03:32:47.688Z,5.42
2019-05-16T03:33:58.966Z,5.44
2019-05-16T03:34:56.145Z,5.37
2019-05-16T03:36:04.460Z,5.40
2019-05-16T03:37:05.170Z,5.37
2019-05-16T03:38:11.843Z,5.43
2019-05-16T03:39:13.134Z,5.46
2019-05-16T03:40:17.314Z,5.37
2019-05-16T03:41:21.849Z,5.36
2019-05-16T03:42:25.887Z,5.34
2019-05-16T03:43:30.925Z,5.39
2019-05-16T03:44:34.323Z,5.42
2019-05-16T03:45:41.667Z,5.38
2019-05-16T03:46:42.815Z,5.39
2019-05-16T03:47:47.042Z,5.36
2019-05-16T03:48:52.145Z,5.32
2019-05-16T03:49:55.545Z,5.32
2019-05-16T03:51:00.815Z,5.33
2019-05-16T03:52:04.119Z,5.38
2019-05-16T03:53:11.374Z,5.46
2019-05-16T03:54:12.831Z,5.39
2019-05-16T03:55:16.878Z,5.25
2019-05-16T03:56:22.084Z,5.33
2019-05-16T03:57:25.387Z,5.37
2019-05-16T03:58:31.058Z,5.38
2019-05-16T03:59:33.920Z,5.38
2019-05-16T04:00:45.310Z,5.32
2019-05-16T04:01:42.361Z,5.30
2019-05-16T04:02:46.705Z,5.31
2019-05-16T04:03:51.446Z,5.29
2019-05-16T04:04:55.096Z,5.28
2019-05-16T04:06:01.128Z,5.25
2019-05-16T04:07:03.657Z,5.29
2019-05-16T04:08:14.766Z,5.31
2019-05-16T04:09:12.675Z,5.22
2019-05-16T04:10:16.272Z,5.27
2019-05-16T04:11:23.381Z,5.30
2019-05-16T04:12:30.665Z,5.20
2019-05-16T04:13:31.649Z,5.23
2019-05-16T04:14:35.345Z,5.22
2019-05-16T04:15:40.821Z,5.08
2019-05-16T04:16:43.786Z,5.14
2019-05-16T04:17:51.053Z,5.14
2019-05-16T04:18:52.241Z,5.15
2019-05-16T04:19:56.547Z,5.05
2019-05-16T04:21:01.238Z,5.07
2019-05-16T04:22:05.003Z,5.13
2019-05-16T04:23:11.199Z,5.15
2019-05-16T04:24:13.493Z,5.23
2019-05-16T04:25:17.695Z,5.11
2019-05-16T04:26:22.129Z,5.12
2019-05-16T04:27:26.179Z,5.08
2019-05-16T04:28:31.848Z,5.13
2019-05-16T04:29:34.622Z,5.12
2019-05-16T04:30:41.562Z,5.12
2019-05-16T04:31:43.126Z,5.16
2019-05-16T04:32:47.439Z,5.12
2019-05-16T04:33:52.030Z,5.17
2019-05-16T04:34:55.802Z,5.08
2019-05-16T04:36:01.294Z,5.15
2019-05-16T04:37:04.340Z,5.15
2019-05-16T04:38:11.346Z,5.15
2019-05-16T04:39:12.882Z,5.12
2019-05-16T04:40:17.162Z,5.21
2019-05-16T04:41:21.647Z,5.16
2019-05-16T04:42:25.593Z,5.22
2019-05-16T04:43:31.585Z,5.22
2019-05-16T04:44:34.195Z,5.21
2019-05-16T04:45:41.391Z,5.18
2019-05-16T04:46:42.617Z,5.15
2019-05-16T04:47:46.935Z,5.21
2019-05-16T04:48:51.335Z,5.24
2019-05-16T04:49:55.398Z,5.17
2019-05-16T04:51:01.369Z,5.13
2019-05-16T04:52:04.009Z,5.31
2019-05-16T04:53:11.358Z,5.26
2019-05-16T04:54:12.418Z,5.37
2019-05-16T04:55:16.644Z,5.41
2019-05-16T04:56:21.927Z,5.40
2019-05-16T04:57:25.122Z,5.44
2019-05-16T04:58:31.740Z,5.50
2019-05-16T04:59:33.737Z,5.48
2019-05-16T05:00:37.988Z,5.54
2019-05-16T05:01:42.209Z,5.46
2019-05-16T05:02:46.495Z,5.48
2019-05-16T05:04:02.148Z,5.54
2019-05-16T05:04:54.924Z,5.53
2019-05-16T05:06:01.258Z,5.52
2019-05-16T05:07:03.473Z,5.53
2019-05-16T05:08:10.661Z,5.63
2019-05-16T05:09:11.994Z,5.57
2019-05-16T05:10:16.097Z,5.58
2019-05-16T05:11:21.573Z,5.72
2019-05-16T05:12:24.589Z,5.52
2019-05-16T05:13:30.642Z,5.59
2019-05-16T05:14:33.082Z,5.71
2019-05-16T05:15:39.945Z,5.69
2019-05-16T05:16:41.623Z,5.72
2019-05-16T05:17:45.797Z,5.66
2019-05-16T05:18:51.422Z,5.59
2019-05-16T05:19:54.295Z,5.71
2019-05-16T05:21:00.951Z,5.75
2019-05-16T05:22:02.869Z,5.60
2019-05-16T05:23:07.023Z,5.63
2019-05-16T05:24:11.318Z,5.59
2019-05-16T05:25:15.568Z,5.60
2019-05-16T05:26:20.058Z,5.68
2019-05-16T05:27:23.979Z,5.77
2019-05-16T05:28:29.989Z,5.73
2019-05-16T05:29:32.445Z,5.80
2019-05-16T05:30:36.641Z,5.73
2019-05-16T05:31:44.731Z,5.80
2019-05-16T05:32:45.116Z,5.85
2019-05-16T05:33:50.672Z,5.80
2019-05-16T05:34:53.578Z,5.82
2019-05-16T05:35:57.756Z,5.86
2019-05-16T05:37:02.041Z,5.80
2019-05-16T05:38:06.247Z,5.78
2019-05-16T05:39:14.685Z,5.87
2019-05-16T05:40:14.741Z,5.99
2019-05-16T05:41:19.879Z,6.02
2019-05-16T05:42:23.280Z,5.93
2019-05-16T05:43:27.450Z,5.95
2019-05-16T05:44:34.728Z,6.06
2019-05-16T05:45:40.064Z,5.95
2019-05-16T05:46:42.263Z,5.98
2019-05-16T05:47:46.440Z,5.92
2019-05-16T05:48:50.791Z,5.85
2019-05-16T05:49:54.941Z,5.97
2019-05-16T05:51:00.190Z,6.02
2019-05-16T05:52:03.394Z,5.99
2019-05-16T05:53:10.072Z,6.02
2019-05-16T05:54:11.851Z,6.07
2019-05-16T05:55:16.138Z,6.04
2019-05-16T05:56:20.403Z,6.14
2019-05-16T05:57:24.598Z,6.17
2019-05-16T05:58:30.735Z,6.27
2019-05-16T05:59:33.078Z,6.24
2019-05-16T06:00:37.324Z,6.22
2019-05-16T06:01:41.651Z,6.29
2019-05-16T06:02:45.912Z,6.25
2019-05-16T06:03:50.655Z,6.21
2019-05-16T06:04:54.324Z,6.24
2019-05-16T06:06:00.871Z,6.28
2019-05-16T06:07:02.876Z,6.22
2019-05-16T06:08:07.007Z,6.23
2019-05-16T06:09:25.369Z,6.25
2019-05-16T06:10:15.548Z,6.34
2019-05-16T06:11:20.553Z,6.24
2019-05-16T06:12:24.037Z,6.27
2019-05-16T06:13:30.815Z,6.21
2019-05-16T06:14:32.552Z,6.26
2019-05-16T06:15:36.811Z,6.20
2019-05-16T06:16:41.110Z,6.15
2019-05-16T06:17:45.286Z,6.32
2019-05-16T06:18:50.306Z,6.20
2019-05-16T06:19:53.863Z,6.20
2019-05-16T06:21:00.255Z,6.31
2019-05-16T06:22:02.327Z,6.37
2019-05-16T06:23:06.644Z,6.36
2019-05-16T06:24:10.913Z,6.34
2019-05-16T06:25:15.205Z,6.40
2019-05-16T06:26:20.387Z,6.37
2019-05-16T06:27:23.575Z,6.28
2019-05-16T06:28:30.271Z,6.39
2019-05-16T06:29:32.049Z,6.48
2019-05-16T06:30:36.367Z,6.40
2019-05-16T06:31:40.774Z,6.46
2019-05-16T06:32:44.869Z,6.44
2019-05-16T06:33:50.223Z,6.46
2019-05-16T06:34:53.326Z,6.46
2019-05-16T06:36:00.103Z,6.61
2019-05-16T06:37:01.946Z,6.57
2019-05-16T06:38:06.141Z,6.64
2019-05-16T06:39:11.482Z,6.54
2019-05-16T06:40:14.643Z,6.59
2019-05-16T06:41:19.907Z,6.64
2019-05-16T06:42:23.169Z,6.73
2019-05-16T06:43:29.869Z,6.76
2019-05-16T06:44:31.664Z,6.55
2019-05-16T06:45:35.948Z,6.63
2019-05-16T06:46:56.385Z,6.61
2019-05-16T06:47:44.522Z,6.62
2019-05-16T06:48:50.635Z,6.66
2019-05-16T06:49:53.025Z,6.65
2019-05-16T06:50:57.209Z,6.64
2019-05-16T06:52:01.429Z,6.67
2019-05-16T06:53:05.685Z,6.65
2019-05-16T06:54:10.300Z,6.63
2019-05-16T06:55:14.250Z,6.67
2019-05-16T06:56:19.966Z,6.66
2019-05-16T06:57:22.710Z,6.67
2019-05-16T06:58:26.960Z,6.62
2019-05-16T06:59:31.213Z,6.62
2019-05-16T07:00:35.455Z,6.65
2019-05-16T07:01:40.466Z,6.64
2019-05-16T07:02:43.960Z,6.63
2019-05-16T07:03:50.597Z,6.67
2019-05-16T07:04:52.511Z,6.65
2019-05-16T07:05:56.697Z,6.71
2019-05-16T07:07:03.032Z,6.76
2019-05-16T07:08:05.329Z,6.84
2019-05-16T07:09:10.510Z,6.81
2019-05-16T07:10:13.846Z,6.82
2019-05-16T07:11:20.162Z,6.92
2019-05-16T07:12:22.387Z,7.03
2019-05-16T07:13:26.600Z,7.16
2019-05-16T07:14:31.464Z,7.20
2019-05-16T07:15:35.168Z,7.21
2019-05-16T07:16:40.558Z,7.27
2019-05-16T07:17:43.759Z,7.46
2019-05-16T07:18:50.381Z,7.39
2019-05-16T07:19:52.167Z,7.37
2019-05-16T07:20:56.453Z,7.44
2019-05-16T07:22:00.802Z,7.44
2019-05-16T07:23:05.015Z,7.28
2019-05-16T07:24:10.926Z,7.37
2019-05-16T07:25:13.515Z,7.40
2019-05-16T07:26:20.349Z,7.49
2019-05-16T07:27:22.158Z,7.53
2019-05-16T07:28:26.344Z,7.38
2019-05-16T07:29:30.976Z,7.40
2019-05-16T07:30:34.826Z,7.26
2019-05-16T07:31:40.615Z,7.26
2019-05-16T07:32:43.476Z,7.29
2019-05-16T07:33:50.050Z,7.18
2019-05-16T07:34:51.928Z,7.20
2019-05-16T07:35:56.168Z,7.17
2019-05-16T07:37:00.568Z,7.26
2019-05-16T07:38:04.667Z,7.29
2019-05-16T07:39:10.718Z,7.42
2019-05-16T07:40:19.635Z,7.42
2019-05-16T07:41:19.849Z,7.44
2019-05-16T07:42:21.796Z,7.36
2019-05-16T07:43:26.035Z,7.44
2019-05-16T07:44:31.001Z,7.42
2019-05-16T07:45:34.434Z,7.41
2019-05-16T07:46:40.898Z,7.43
2019-05-16T07:47:43.064Z,7.42
2019-05-16T07:48:47.292Z,7.38
2019-05-16T07:49:51.518Z,7.35
2019-05-16T07:50:55.769Z,7.23
2019-05-16T07:52:00.569Z,7.25
2019-05-16T07:53:04.177Z,7.37
2019-05-16T07:54:10.497Z,7.34
2019-05-16T07:55:13.053Z,7.25
2019-05-16T07:56:17.171Z,7.27
2019-05-16T07:57:23.008Z,7.29
2019-05-16T07:58:25.725Z,7.36
2019-05-16T07:59:30.165Z,7.35
2019-05-16T08:00:49.499Z,7.37
2019-05-16T08:01:39.855Z,7.35
2019-05-16T08:02:42.726Z,7.54
2019-05-16T08:03:47.050Z,7.54
2019-05-16T08:04:51.270Z,7.46
2019-05-16T08:05:55.522Z,7.55
2019-05-16T08:07:00.706Z,7.46
2019-05-16T08:08:04.111Z,7.53
2019-05-16T08:09:12.008Z,7.56
2019-05-16T08:10:12.640Z,7.50
2019-05-16T08:11:16.840Z,7.51
2019-05-16T08:12:26.014Z,7.59
2019-05-16T08:13:25.311Z,7.53
2019-05-16T08:14:30.412Z,7.45
2019-05-16T08:15:33.751Z,7.47
2019-05-16T08:16:40.536Z,7.51
2019-05-16T08:17:44.684Z,7.49
2019-05-16T08:18:46.540Z,7.44
2019-05-16T08:19:51.077Z,7.54
2019-05-16T08:20:55.191Z,7.56
2019-05-16T08:22:01.261Z,7.67
2019-05-16T08:23:03.632Z,7.70
2019-05-16T08:24:13.937Z,7.71
2019-05-16T08:25:12.231Z,7.71
2019-05-16T08:26:16.460Z,7.65
2019-05-16T08:27:21.015Z,7.64
2019-05-16T08:28:25.019Z,7.67
2019-05-16T08:29:31.668Z,7.65
2019-05-16T08:30:33.514Z,7.67
2019-05-16T08:31:37.704Z,7.63
2019-05-16T08:32:42.412Z,7.64
2019-05-16T08:33:46.240Z,7.66
2019-05-16T08:34:51.514Z,7.69
2019-05-16T08:35:54.685Z,7.68
2019-05-16T08:37:01.151Z,7.70
2019-05-16T08:38:03.255Z,7.70
2019-05-16T08:39:07.526Z,7.68
2019-05-16T08:40:11.854Z,7.76
2019-05-16T08:42:20.975Z,7.75
2019-05-16T08:43:24.619Z,7.80
2019-05-16T08:44:31.955Z,7.83
2019-05-16T08:45:33.045Z,7.90
2019-05-16T08:46:41.169Z,7.89
2019-05-16T08:47:42.596Z,7.83
2019-05-16T08:48:45.806Z,7.85
2019-05-16T08:49:52.216Z,7.89
2019-05-16T08:50:55.060Z,7.93
2019-05-16T08:52:01.368Z,7.99
2019-05-16T08:53:02.988Z,8.03
2019-05-16T08:54:07.213Z,7.95
2019-05-16T08:55:13.578Z,8.02
2019-05-16T08:56:15.667Z,8.04
2019-05-16T08:57:28.946Z,8.11
2019-05-16T08:58:24.163Z,8.19
2019-05-16T08:59:33.539Z,8.26
2019-05-16T09:00:33.553Z,8.35
2019-05-16T09:01:37.024Z,8.37
2019-05-16T09:02:42.369Z,8.37
2019-05-16T09:03:45.528Z,8.27
2019-05-16T09:04:53.452Z,8.30
2019-05-16T09:05:54.111Z,8.32
2019-05-16T09:07:02.117Z,8.31
2019-05-16T09:08:04.639Z,8.28
2019-05-16T09:09:26.467Z,8.45
2019-05-16T09:10:35.467Z,7.73
2019-05-16T09:10:50.139Z,8.36
2019-05-16T09:11:33.732Z,8.43
2019-05-16T09:12:21.658Z,8.51
2019-05-16T09:13:27.932Z,8.39
2019-05-16T09:14:35.224Z,8.42
2019-05-16T09:15:34.605Z,8.32
2019-05-16T09:16:38.788Z,8.41
2019-05-16T09:17:42.976Z,8.33
2019-05-16T09:18:50.546Z,8.40
2019-05-16T09:19:51.491Z,8.46
2019-05-16T09:20:57.790Z,8.50
2019-05-16T09:21:59.971Z,8.55
2019-05-16T09:23:07.208Z,8.48
2019-05-16T09:24:08.436Z,8.59
2019-05-16T09:25:12.842Z,8.63
2019-05-16T09:26:19.853Z,8.45
2019-05-16T09:27:21.416Z,8.53
2019-05-16T09:28:28.297Z,8.55
2019-05-16T09:29:29.856Z,8.62
2019-05-16T09:30:36.866Z,8.68
2019-05-16T09:31:38.925Z,8.64
2019-05-16T09:32:43.028Z,8.40
2019-05-16T09:33:47.508Z,8.46
2019-05-16T09:34:51.194Z,8.40
2019-05-16T09:35:57.298Z,8.41
2019-05-16T09:37:01.077Z,8.26
2019-05-16T09:38:03.987Z,8.31
2019-05-16T09:39:08.563Z,8.32
2019-05-16T09:40:12.553Z,8.42
2019-05-16T09:41:17.046Z,8.48
2019-05-16T09:42:21.087Z,8.53
2019-05-16T09:43:28.103Z,8.38
2019-05-16T09:44:29.560Z,8.35
2019-05-16T09:45:33.903Z,8.44
2019-05-16T09:46:38.145Z,8.42
2019-05-16T09:47:42.373Z,8.48
2019-05-16T09:48:47.735Z,8.41
2019-05-16T09:49:50.860Z,8.43
2019-05-16T09:50:57.756Z,8.39
2019-05-16T09:51:59.371Z,8.32
2019-05-16T09:53:03.608Z,8.39
2019-05-16T09:54:07.865Z,8.43
2019-05-16T09:55:12.086Z,8.41
2019-05-16T09:56:16.823Z,8.46
2019-05-16T09:57:20.675Z,8.43
2019-05-16T09:58:27.234Z,8.48
2019-05-16T09:59:29.282Z,8.61
2019-05-16T10:00:33.456Z,8.63
2019-05-16T10:01:37.714Z,8.73
2019-05-16T10:02:41.969Z,8.77
2019-05-16T10:03:47.796Z,8.74
2019-05-16T10:04:50.538Z,8.76
2019-05-16T10:05:57.181Z,8.81
2019-05-16T10:06:59.037Z,8.77
2019-05-16T10:08:03.251Z,8.68
2019-05-16T10:09:07.505Z,8.77
2019-05-16T10:10:11.829Z,8.82
2019-05-16T10:11:18.139Z,8.81
2019-05-16T10:12:20.310Z,8.87
2019-05-16T10:13:27.287Z,8.88
2019-05-16T10:14:28.858Z,8.94
2019-05-16T10:15:33.202Z,9.10
2019-05-16T10:16:37.491Z,9.03
2019-05-16T10:17:41.700Z,9.09
2019-05-16T10:18:47.573Z,9.05
2019-05-16T10:19:50.297Z,9.21
2019-05-16T10:20:58.977Z,9.38
2019-05-16T10:22:00.313Z,9.38
2019-05-16T10:23:03.313Z,9.38
2019-05-16T10:24:07.491Z,9.44
2019-05-16T10:25:11.666Z,9.41
2019-05-16T10:26:17.230Z,9.44
2019-05-16T10:27:20.245Z,9.26
2019-05-16T10:28:27.048Z,9.28
2019-05-16T10:29:28.723Z,9.31
2019-05-16T10:30:33.003Z,9.37
2019-05-16T10:31:45.757Z,9.40
2019-05-16T10:32:41.629Z,9.14
2019-05-16T10:33:47.807Z,9.27
2019-05-16T10:34:50.203Z,9.31
2019-05-16T10:35:54.510Z,9.42
2019-05-16T10:36:58.812Z,9.29
2019-05-16T10:38:03.081Z,9.41
2019-05-16T10:39:07.824Z,9.50
2019-05-16T10:40:11.659Z,9.44
2019-05-16T10:41:18.929Z,9.61
2019-05-16T10:42:28.513Z,10.05
2019-05-16T10:43:26.704Z,9.99
2019-05-16T10:44:30.887Z,10.03
2019-05-16T10:45:36.891Z,9.89
2019-05-16T10:46:39.452Z,9.86
2019-05-16T10:47:43.833Z,9.74
2019-05-16T10:48:48.069Z,9.80
2019-05-16T10:49:52.328Z,9.98
2019-05-16T10:50:57.759Z,10.13
2019-05-16T10:52:00.916Z,10.09
2019-05-16T10:53:23.789Z,9.87
2019-05-16T10:54:13.970Z,9.82
2019-05-16T10:55:13.923Z,9.83
2019-05-16T10:56:18.176Z,9.93
2019-05-16T10:57:22.682Z,9.90
2019-05-16T10:58:36.669Z,9.87
2019-05-16T10:59:57.970Z,10.11
2019-05-16T11:01:05.202Z,10.25
2019-05-16T11:01:39.829Z,10.35
2019-05-16T11:02:44.189Z,10.33
2019-05-16T11:03:49.274Z,10.19
2019-05-16T11:05:00.614Z,10.17
2019-05-16T11:06:05.287Z,10.16
2019-05-16T11:07:01.283Z,10.20
2019-05-16T11:08:08.260Z,10.10
2019-05-16T11:09:09.941Z,10.25
2019-05-16T11:10:14.346Z,10.26
2019-05-16T11:11:19.936Z,10.45
2019-05-16T11:12:22.993Z,10.20
2019-05-16T11:13:28.009Z,10.37
2019-05-16T11:14:31.543Z,10.23
2019-05-16T11:15:37.433Z,10.24
2019-05-16T11:16:40.361Z,10.21
2019-05-16T11:17:44.546Z,10.34
2019-05-16T11:18:48.835Z,10.38
2019-05-16T11:19:53.178Z,10.32
2019-05-16T11:20:58.254Z,10.32
2019-05-16T11:22:01.860Z,10.20
2019-05-16T11:23:07.892Z,10.28
2019-05-16T11:24:12.639Z,10.16
2019-05-16T11:25:24.871Z,10.23
2019-05-16T11:26:19.181Z,10.14
2019-05-16T11:27:23.641Z,10.34
2019-05-16T11:28:27.898Z,10.08
2019-05-16T11:29:32.313Z,10.68
2019-05-16T11:30:37.566Z,10.28
2019-05-16T11:31:41.056Z,10.28
2019-05-16T11:32:46.935Z,10.32
2019-05-16T11:33:49.638Z,10.55
2019-05-16T11:34:53.936Z,10.48
2019-05-16T11:35:58.356Z,10.19
2019-05-16T11:37:02.637Z,10.01
2019-05-16T11:38:07.405Z,10.25
2019-05-16T11:39:11.412Z,10.42
2019-05-16T11:40:17.839Z,10.26
2019-05-16T11:41:20.172Z,9.99
2019-05-16T11:42:24.524Z,10.04
2019-05-16T11:43:28.859Z,10.08
2019-05-16T11:44:33.184Z,9.84
2019-05-16T11:45:37.447Z,10.03
2019-05-16T11:46:41.762Z,10.20
2019-05-16T11:47:47.119Z,10.10
2019-05-16T11:48:50.505Z,10.20
2019-05-16T11:49:56.929Z,9.83
2019-05-16T11:50:59.136Z,9.71
2019-05-16T11:52:03.526Z,9.76
2019-05-16T11:53:07.906Z,9.68
2019-05-16T11:54:12.204Z,9.86
2019-05-16T11:55:16.498Z,10.04
2019-05-16T11:56:20.780Z,9.94
2019-05-16T11:57:25.233Z,10.09
2019-05-16T11:58:29.482Z,9.81
2019-05-16T11:59:33.789Z,9.83
2019-05-16T12:00:38.203Z,9.61
2019-05-16T12:01:42.527Z,9.75
2019-05-16T12:02:47.824Z,9.97
2019-05-16T12:03:51.150Z,10.06
2019-05-16T12:04:57.894Z,9.75
2019-05-16T12:05:59.901Z,9.65
2019-05-16T12:07:04.257Z,9.63
2019-05-16T12:08:08.590Z,9.45
2019-05-16T12:09:12.954Z,9.52
2019-05-16T12:10:17.158Z,9.50
2019-05-16T12:11:21.476Z,9.63
2019-05-16T12:12:27.201Z,9.64
2019-05-16T12:13:32.903Z,9.65
2019-05-16T12:14:36.613Z,9.39
2019-05-16T12:15:38.829Z,9.39
2019-05-16T12:16:43.158Z,9.34
2019-05-16T12:18:00.392Z,9.40
2019-05-16T12:18:51.803Z,9.60
2019-05-16T12:19:57.519Z,9.73
2019-05-16T12:21:00.494Z,9.65
2019-05-16T12:22:07.032Z,9.65
2019-05-16T12:23:09.170Z,9.69
2019-05-16T12:24:29.149Z,9.76
2019-05-16T12:25:17.860Z,9.57
2019-05-16T12:26:22.233Z,9.43
2019-05-16T12:27:32.771Z,9.46
2019-05-16T12:28:30.898Z,9.46
2019-05-16T12:29:37.284Z,9.40
2019-05-16T12:30:40.534Z,9.47
2019-05-16T12:31:55.295Z,9.39
2019-05-16T12:32:48.173Z,9.39
2019-05-16T12:33:52.458Z,9.47
2019-05-16T12:34:56.901Z,9.39
2019-05-16T12:36:01.008Z,9.25
2019-05-16T12:37:07.382Z,9.28
2019-05-16T12:38:09.645Z,9.37
2019-05-16T12:39:14.050Z,9.29
2019-05-16T12:40:18.300Z,9.40
2019-05-16T12:41:22.686Z,9.31
2019-05-16T12:42:27.194Z,9.30
2019-05-16T12:43:44.731Z,9.26
2019-05-16T12:44:37.312Z,9.35
2019-05-16T12:45:39.882Z,9.31
2019-05-16T12:46:44.195Z,9.44
2019-05-16T12:47:48.534Z,9.50
2019-05-16T12:48:52.955Z,9.52
2019-05-16T12:49:56.716Z,9.47
2019-05-16T12:51:00.640Z,9.35
2019-05-16T12:52:06.767Z,9.43
2019-05-16T12:53:09.262Z,9.43
2019-05-16T12:54:13.593Z,9.46
2019-05-16T12:55:17.847Z,9.36
2019-05-16T12:56:22.130Z,9.38
2019-05-16T12:57:27.612Z,9.21
2019-05-16T12:58:37.669Z,9.25
2019-05-16T12:59:36.801Z,9.28
2019-05-16T13:00:44.011Z,9.37
2019-05-16T13:01:43.590Z,9.21
2019-05-16T13:02:48.079Z,9.32
2019-05-16T13:03:52.233Z,9.23
2019-05-16T13:04:57.550Z,9.16
2019-05-16T13:06:00.965Z,9.16
2019-05-16T13:07:09.287Z,9.10
2019-05-16T13:08:09.637Z,9.04
2019-05-16T13:09:13.979Z,9.19
2019-05-16T13:10:18.334Z,9.14
2019-05-16T13:11:22.640Z,9.12
2019-05-16T13:12:27.252Z,9.21
2019-05-16T13:13:31.205Z,9.23
2019-05-16T13:14:39.995Z,9.25
2019-05-16T13:15:42.378Z,9.32
2019-05-16T13:16:44.145Z,9.38
2019-05-16T13:17:48.451Z,9.31
2019-05-16T13:18:52.703Z,9.35
2019-05-16T13:19:57.667Z,9.29
2019-05-16T13:21:01.300Z,9.19
2019-05-16T13:22:07.304Z,9.26
2019-05-16T13:23:14.294Z,9.28
2019-05-16T13:24:14.304Z,9.34
2019-05-16T13:25:18.680Z,9.50
2019-05-16T13:26:22.990Z,9.70
2019-05-16T13:27:27.371Z,9.66
2019-05-16T13:28:31.625Z,9.69
2019-05-16T13:29:37.073Z,9.74
2019-05-16T13:30:40.201Z,9.74
2019-05-16T13:31:44.483Z,9.66
2019-05-16T13:32:48.757Z,9.71
2019-05-16T13:33:53.046Z,9.79
2019-05-16T13:34:59.174Z,9.85
2019-05-16T13:36:01.714Z,9.79
2019-05-16T13:37:07.584Z,9.77
2019-05-16T13:38:10.232Z,9.89
2019-05-16T13:39:16.895Z,10.05
2019-05-16T13:40:18.979Z,9.88
2019-05-16T13:41:23.311Z,9.70
2019-05-16T13:42:27.649Z,9.79
2019-05-16T13:43:31.993Z,9.87
2019-05-16T13:44:37.691Z,9.93
2019-05-16T13:45:40.667Z,9.88
2019-05-16T13:46:46.768Z,9.98
2019-05-16T13:47:49.363Z,9.99
2019-05-16T13:48:53.688Z,9.85
2019-05-16T13:49:58.018Z,9.88
2019-05-16T13:51:13.795Z,9.79
2019-05-16T13:52:07.293Z,9.89
2019-05-16T13:53:11.033Z,10.00
2019-05-16T13:54:17.522Z,10.21
2019-05-16T13:55:22.567Z,10.23
2019-05-16T13:56:27.345Z,10.29
2019-05-16T13:57:30.174Z,10.30
2019-05-16T13:58:37.115Z,10.30
2019-05-16T13:59:38.796Z,10.26
2019-05-16T14:00:43.184Z,10.33
2019-05-16T14:01:47.420Z,10.27
2019-05-16T14:02:51.674Z,10.33
2019-05-16T14:03:57.319Z,10.24
2019-05-16T14:05:00.283Z,10.21
2019-05-16T14:06:06.994Z,10.20
2019-05-16T14:07:08.975Z,10.14
2019-05-16T14:08:13.240Z,10.29
2019-05-16T14:09:17.586Z,10.27
2019-05-16T14:10:21.902Z,10.37
2019-05-16T14:11:26.206Z,10.36
2019-05-16T14:12:30.571Z,10.48
2019-05-16T14:13:37.423Z,10.39